createdAt,value
2023-03-21T00:14:26.488Z,9.2
2023-03-21T00:29:26.507Z,9.2
2023-03-21T00:44:26.515Z,9.2
2023-03-21T00:59:26.496Z,9.1
2023-03-21T01:14:26.473Z,9
2023-03-21T01:29:26.465Z,8.8
2023-03-21T01:44:26.509Z,8.6
2023-03-21T01:59:26.474Z,8.6
2023-03-21T02:14:29.163Z,8.8
2023-03-21T02:29:26.470Z,8.8
2023-03-21T02:44:26.517Z,8.8
2023-03-21T02:59:26.444Z,8.9
2023-03-21T03:14:44.056Z,9.1
2023-03-21T03:29:26.457Z,9.2
2023-03-21T03:44:26.484Z,9.2
2023-03-21T03:59:26.510Z,9.2
2023-03-21T04:14:33.139Z,9.2
2023-03-21T04:29:26.491Z,9.4
2023-03-21T04:44:26.512Z,9.4
2023-03-21T04:59:26.470Z,9.4
2023-03-21T05:14:26.488Z,9.4
2023-03-21T05:29:26.463Z,9.6
2023-03-21T05:44:26.502Z,9.4
2023-03-21T05:59:26.505Z,8.7
2023-03-21T06:14:26.475Z,8.6
2023-03-21T06:29:26.478Z,8.6
2023-03-21T06:44:26.484Z,8.6
2023-03-21T06:59:26.488Z,8.8
2023-03-21T07:14:26.473Z,9
2023-03-21T07:29:26.506Z,9.2
2023-03-21T07:44:26.489Z,9.5
2023-03-21T07:59:26.469Z,9.7
2023-03-21T08:14:26.457Z,9.9
2023-03-21T08:29:26.504Z,10.1
2023-03-21T08:44:26.457Z,10.2
2023-03-21T08:59:26.467Z,10.4
2023-03-21T09:14:28.868Z,10.4
2023-03-21T09:29:26.485Z,11.1
2023-03-21T09:44:26.492Z,11.6
2023-03-21T09:59:26.480Z,11.6
2023-03-21T10:14:26.476Z,11.9
2023-03-21T10:29:26.529Z,11.8
2023-03-21T10:44:26.452Z,12
2023-03-21T10:59:26.481Z,11.8
2023-03-21T11:14:26.491Z,11.6
2023-03-21T11:29:26.482Z,11.4
2023-03-21T11:44:26.496Z,11.7
2023-03-21T11:59:26.506Z,12.2
2023-03-21T12:14:26.469Z,12.8
2023-03-21T12:29:26.452Z,13.1
2023-03-21T12:44:26.458Z,13.4
2023-03-21T12:59:26.494Z,13.5
2023-03-21T13:14:26.455Z,13.8
2023-03-21T13:29:26.456Z,13.9
2023-03-21T13:44:26.473Z,13.8
2023-03-21T13:59:26.475Z,13.8
2023-03-21T14:14:26.473Z,14.2
2023-03-21T14:29:27.095Z,13.8
2023-03-21T14:44:26.502Z,16.1
2023-03-21T14:59:26.479Z,16.6
2023-03-21T15:14:26.458Z,14.8
2023-03-21T15:29:26.473Z,15.2
2023-03-21T15:44:26.459Z,14.6
2023-03-21T15:59:26.470Z,14.5
2023-03-21T16:14:26.446Z,14.4
2023-03-21T16:29:26.458Z,14.2
2023-03-21T16:44:26.469Z,14.1
2023-03-21T16:59:26.459Z,13.9
2023-03-21T17:14:26.487Z,13.8
2023-03-21T17:29:26.469Z,13.6
2023-03-21T17:44:26.452Z,13.4
2023-03-21T17:59:26.470Z,13.1
2023-03-21T18:14:28.693Z,13
2023-03-21T18:44:26.469Z,12.8
2023-03-21T18:59:26.480Z,12.6
2023-03-21T19:14:26.484Z,12.4
2023-03-21T19:29:26.524Z,12.3
2023-03-21T19:44:26.501Z,12.1
2023-03-21T19:59:26.474Z,11.9
2023-03-21T20:14:26.450Z,11.6
2023-03-21T20:30:08.431Z,11.5
2023-03-21T20:44:56.232Z,11.4
2023-03-21T20:59:28.085Z,11.5
2023-03-21T21:14:26.490Z,11.6
2023-03-21T21:29:26.478Z,11.6
2023-03-21T21:44:26.497Z,11.7
2023-03-21T21:59:26.467Z,11.7
2023-03-21T22:14:26.462Z,11.6
2023-03-21T22:29:26.452Z,11.5
2023-03-21T22:44:26.480Z,11.4
2023-03-21T22:59:26.458Z,11.4
2023-03-21T23:14:26.475Z,11.2
2023-03-21T23:29:26.488Z,11.2
2023-03-21T23:44:26.483Z,11
2023-03-21T23:59:26.482Z,10.8
